Time;durP1;ratioP1;P1;durP2;ratioP2;P2;SDS_P1;SDS_P2;PMS_P1;PMS_P2;Temp;Humidity;BMP_temperature;BMP_pressure;BME280_temperature;BME280_humidity;BME280_pressure;Samples;Min_cycle;Max_cycle;Signal;HPM_P1;HPM_P2
2020/12/24 00:00:00;;;;;;;21.20;14.55;;;;;;;6.81;89.16;99729.75;1623974;86;21646;-78
2020/12/24 00:02:27;;;;;;;25.20;15.90;;;;;;;6.83;89.17;99725.00;1626773;86;21260;-78
2020/12/24 00:04:53;;;;;;;21.82;15.40;;;;;;;6.85;89.20;99714.27;1635946;86;28343;-78
2020/12/24 00:07:19;;;;;;;25.77;16.20;;;;;;;6.88;89.20;99715.94;1627222;86;21588;-78
2020/12/24 00:09:46;;;;;;;19.80;15.18;;;;;;;6.89;89.20;99703.50;1629371;86;21209;-78
2020/12/24 00:12:13;;;;;;;18.85;13.38;;;;;;;6.90;89.20;99705.20;1622258;86;22391;-78
2020/12/24 00:14:40;;;;;;;21.55;14.63;;;;;;;6.94;89.21;99703.00;1630509;86;21632;-78
2020/12/24 00:17:07;;;;;;;29.32;15.90;;;;;;;6.96;89.23;99702.53;1625093;85;21643;-78
2020/12/24 00:19:33;;;;;;;20.65;14.68;;;;;;;6.97;89.24;99695.23;1631247;86;21639;-78
2020/12/24 00:22:00;;;;;;;18.70;13.10;;;;;;;6.98;89.24;99690.08;1621509;86;21207;-78
2020/12/24 00:24:26;;;;;;;22.95;14.63;;;;;;;7.01;89.25;99696.04;1627629;86;21623;-77
2020/12/24 00:26:52;;;;;;;19.62;13.80;;;;;;;7.01;89.26;99693.03;1625633;86;21240;-77
2020/12/24 00:29:19;;;;;;;18.75;13.62;;;;;;;7.03;89.26;99693.86;1626449;86;21227;-77
2020/12/24 00:31:45;;;;;;;20.27;14.55;;;;;;;7.05;89.28;99680.98;1617922;86;22306;-78
2020/12/24 00:34:11;;;;;;;20.45;14.15;;;;;;;7.06;89.26;99682.23;1640700;86;21224;-78
2020/12/24 00:36:38;;;;;;;20.97;13.53;;;;;;;7.07;89.26;99677.95;1631728;86;21220;-78
2020/12/24 00:39:04;;;;;;;21.05;14.33;;;;;;;7.09;89.27;99677.48;1641481;85;21645;-78
2020/12/24 00:41:30;;;;;;;20.00;14.68;;;;;;;7.10;89.28;99665.05;1620569;86;22364;-78
2020/12/24 00:43:57;;;;;;;21.30;14.25;;;;;;;7.11;89.27;99661.16;1627752;86;21215;-78
2020/12/24 00:46:23;;;;;;;19.12;13.03;;;;;;;7.11;89.26;99653.89;1628919;86;21219;-78
2020/12/24 00:48:49;;;;;;;19.67;13.03;;;;;;;7.12;89.30;99659.44;1627198;86;21401;-78
2020/12/24 00:51:16;;;;;;;21.15;14.03;;;;;;;7.13;89.29;99650.85;1633370;86;21231;-78
2020/12/24 00:53:42;;;;;;;17.25;12.25;;;;;;;7.12;89.29;99646.15;1635265;85;22077;-78
2020/12/24 00:56:10;;;;;;;16.82;12.25;;;;;;;7.15;89.31;99638.82;1634216;85;21272;-78
2020/12/24 00:58:37;;;;;;;17.50;11.78;;;;;;;7.16;89.34;99631.52;1652878;85;21202;-78
2020/12/24 01:01:05;;;;;;;15.23;11.45;;;;;;;7.15;89.35;99622.95;1650832;85;21142;-78
2020/12/24 01:03:31;;;;;;;17.27;11.43;;;;;;;7.20;89.38;99629.30;1640887;85;21157;-78
2020/12/24 01:05:58;;;;;;;18.77;11.75;;;;;;;7.23;89.38;99633.95;1649914;85;21135;-78
2020/12/24 01:08:24;;;;;;;13.72;10.40;;;;;;;7.26;89.42;99639.48;1647734;86;21028;-78
2020/12/24 01:10:51;;;;;;;18.77;12.13;;;;;;;7.29;89.39;99630.39;1651884;86;21628;-78
2020/12/24 01:13:17;;;;;;;13.43;9.55;;;;;;;7.34;89.09;99631.59;1653616;86;22288;-78
2020/12/24 01:15:43;;;;;;;14.45;10.35;;;;;;;7.34;89.09;99631.59;1648123;86;21130;-78
2020/12/24 01:18:10;;;;;;;11.38;9.30;;;;;;;7.36;89.40;99639.69;1651691;85;21147;-78
2020/12/24 01:20:36;;;;;;;14.70;10.38;;;;;;;7.39;89.43;99647.34;1656716;85;21667;-78
2020/12/24 01:23:03;;;;;;;10.53;8.88;;;;;;;7.42;89.47;99654.16;1645567;86;21166;-78
2020/12/24 01:25:29;;;;;;;11.83;9.18;;;;;;;7.44;89.47;99645.98;1648554;85;21215;-78
2020/12/24 01:27:56;;;;;;;12.00;9.08;;;;;;;7.45;89.47;99633.53;1645640;85;21122;-77
2020/12/24 01:30:22;;;;;;;12.80;9.15;;;;;;;7.49;89.54;99627.45;1647821;85;21138;-78
2020/12/24 01:32:48;;;;;;;9.03;8.13;;;;;;;7.53;89.56;99623.50;1647711;86;21588;-78
2020/12/24 01:35:15;;;;;;;11.80;10.45;;;;;;;7.55;89.57;99620.90;1653808;85;21107;-78
2020/12/24 01:37:41;;;;;;;11.43;9.73;;;;;;;7.59;89.52;99618.23;1652831;85;21802;-78
2020/12/24 01:40:07;;;;;;;13.35;10.38;;;;;;;7.62;89.55;99621.19;1653101;85;21154;-78
2020/12/24 01:42:34;;;;;;;12.75;10.58;;;;;;;7.63;89.55;99617.73;1641724;85;21254;-78
2020/12/24 01:45:00;;;;;;;15.60;11.78;;;;;;;7.67;89.59;99609.52;1641706;86;21596;-78
2020/12/24 01:47:26;;;;;;;18.12;12.33;;;;;;;7.69;89.59;99603.47;1648692;85;21202;-78
2020/12/24 01:49:52;;;;;;;16.82;12.90;;;;;;;7.72;89.60;99604.69;1654939;85;21265;-78
2020/12/24 01:52:38;;;;;;;19.25;13.58;;;;;;;7.76;89.64;99599.04;1639545;85;22260;-78
2020/12/24 01:55:09;;;;;;;16.27;12.65;;;;;;;7.79;89.64;99594.68;1657050;85;20996;-78
2020/12/24 01:57:36;;;;;;;20.85;14.73;;;;;;;7.82;89.62;99597.59;1649745;85;21641;-78
2020/12/24 02:00:11;;;;;;;22.10;15.48;;;;;;;7.86;89.65;99593.64;1649989;85;21533;-78
2020/12/24 02:02:37;;;;;;;21.48;14.98;;;;;;;7.89;89.67;99595.30;1642877;85;21455;-78
2020/12/24 02:05:05;;;;;;;21.52;16.20;;;;;;;7.91;89.65;99598.25;1651867;85;21170;-78
2020/12/24 02:07:31;;;;;;;19.37;14.98;;;;;;;7.95;89.68;99600.31;1648888;85;21536;-78
2020/12/24 02:09:58;;;;;;;22.80;16.45;;;;;;;7.97;89.64;99595.55;1641744;85;21206;-78
2020/12/24 02:12:24;;;;;;;27.20;16.70;;;;;;;7.99;89.65;99590.36;1636191;85;21236;-78
2020/12/24 02:14:50;;;;;;;25.95;17.25;;;;;;;8.02;89.68;99585.59;1650012;85;21993;-78
2020/12/24 02:17:16;;;;;;;21.42;16.87;;;;;;;8.06;89.75;99576.91;1642355;85;21638;-78
2020/12/24 02:19:43;;;;;;;24.23;17.45;;;;;;;8.09;89.74;99575.56;1643980;85;21234;-78
2020/12/24 02:22:10;;;;;;;21.68;16.50;;;;;;;8.12;89.75;99568.61;1661689;85;21222;-78
2020/12/24 02:24:44;;;;;;;25.00;16.40;;;;;;;8.15;89.73;99569.83;1641127;85;21246;-78
2020/12/24 02:27:12;;;;;;;18.02;14.63;;;;;;;8.17;89.73;99562.92;1643826;86;21225;-78
2020/12/24 02:29:38;;;;;;;22.95;15.98;;;;;;;8.21;89.75;99570.13;1642028;85;22265;-78
2020/12/24 02:32:05;;;;;;;19.65;15.00;;;;;;;8.24;89.77;99564.91;1651557;85;21238;-78
2020/12/24 02:34:31;;;;;;;18.60;14.90;;;;;;;8.27;89.78;99559.25;1640375;85;21209;-78
2020/12/24 02:36:58;;;;;;;17.87;13.45;;;;;;;8.31;89.80;99558.73;1638372;85;21207;-78
2020/12/24 02:39:24;;;;;;;18.73;14.23;;;;;;;8.36;89.80;99561.20;1651923;85;21359;-78
2020/12/24 02:41:50;;;;;;;19.15;15.03;;;;;;;8.39;89.83;99561.98;1648555;85;21261;-78
2020/12/24 02:44:17;;;;;;;17.17;14.58;;;;;;;8.42;89.83;99558.05;1656205;85;21472;-78
2020/12/24 02:46:43;;;;;;;15.95;14.15;;;;;;;8.47;89.85;99547.19;1643327;85;22148;-78
2020/12/24 02:49:09;;;;;;;16.00;13.10;;;;;;;8.52;89.86;99547.08;1637512;85;21194;-78
2020/12/24 02:51:36;;;;;;;16.93;13.53;;;;;;;8.55;89.84;99545.71;1646848;85;21229;-78
2020/12/24 02:54:02;;;;;;;17.23;13.80;;;;;;;8.59;89.87;99547.33;1654425;85;21202;-78
2020/12/24 02:56:28;;;;;;;14.33;12.82;;;;;;;8.63;89.85;99549.79;1643137;85;21217;-78
2020/12/24 02:58:55;;;;;;;15.43;13.00;;;;;;;8.67;89.82;99545.41;1647525;85;21611;-78
2020/12/24 03:01:21;;;;;;;15.48;13.15;;;;;;;8.71;89.81;99536.71;1644470;86;21218;-78
2020/12/24 03:03:47;;;;;;;17.77;12.80;;;;;;;8.74;89.83;99528.05;1634844;85;21235;-78
2020/12/24 03:06:14;;;;;;;13.68;12.28;;;;;;;8.77;89.85;99527.98;1648171;85;21213;-78
2020/12/24 03:08:40;;;;;;;14.65;12.98;;;;;;;8.80;89.84;99527.90;1647090;85;21640;-77
2020/12/24 03:11:06;;;;;;;15.05;12.58;;;;;;;8.85;89.87;99527.30;1639196;85;21230;-77
2020/12/24 03:13:32;;;;;;;13.40;10.80;;;;;;;8.88;89.87;99531.09;1643356;85;21216;-77
2020/12/24 03:16:00;;;;;;;14.45;11.40;;;;;;;8.91;89.85;99530.56;1650066;86;21774;-78
2020/12/24 03:18:26;;;;;;;16.57;11.78;;;;;;;8.95;89.86;99535.20;1646514;85;21554;-78
2020/12/24 03:20:52;;;;;;;14.20;11.28;;;;;;;8.97;89.85;99536.00;1647268;85;21249;-78
2020/12/24 03:23:18;;;;;;;12.88;11.28;;;;;;;9.00;89.82;99531.21;1647638;85;21225;-78
2020/12/24 03:25:45;;;;;;;12.53;11.10;;;;;;;9.03;89.87;99533.27;1640242;85;21496;-78
2020/12/24 03:28:11;;;;;;;14.63;11.50;;;;;;;9.06;89.85;99531.05;1641056;85;21991;-78
2020/12/24 03:30:37;;;;;;;12.95;11.63;;;;;;;9.08;89.84;99529.27;1647029;85;21720;-78
2020/12/24 03:33:04;;;;;;;15.53;11.53;;;;;;;9.10;89.84;99521.89;1638435;85;21556;-78
2020/12/24 03:35:30;;;;;;;12.40;11.18;;;;;;;9.13;89.81;99523.55;1649982;85;21186;-78
2020/12/24 03:37:56;;;;;;;12.75;10.43;;;;;;;9.15;89.85;99529.06;1650072;85;21225;-78
2020/12/24 03:40:22;;;;;;;11.40;10.23;;;;;;;9.17;89.83;99527.28;1653494;85;21265;-78
2020/12/24 03:42:49;;;;;;;11.73;10.63;;;;;;;9.19;89.84;99526.80;1647807;85;21250;-78
2020/12/24 03:45:15;;;;;;;11.53;10.35;;;;;;;9.21;89.86;99526.31;1651569;85;21190;-78
2020/12/24 03:47:41;;;;;;;11.48;9.93;;;;;;;9.25;89.86;99524.50;1642277;86;21257;-78
2020/12/24 03:50:08;;;;;;;11.20;10.03;;;;;;;9.25;89.83;99506.00;1650578;85;21198;-78
2020/12/24 03:52:35;;;;;;;11.38;9.75;;;;;;;9.28;89.82;99506.36;1645327;85;39145;-78
2020/12/24 03:55:01;;;;;;;10.72;9.73;;;;;;;9.29;89.84;99512.77;1641549;85;21232;-78
2020/12/24 03:57:28;;;;;;;9.40;8.40;;;;;;;9.32;89.83;99518.72;1647370;85;21258;-78
2020/12/24 03:59:54;;;;;;;9.38;8.38;;;;;;;9.34;89.82;99531.13;1620291;86;21212;-78
2020/12/24 04:02:20;;;;;;;9.83;8.83;;;;;;;9.29;89.83;99515.34;1643539;86;21234;-78
2020/12/24 04:04:47;;;;;;;8.68;7.87;;;;;;;9.37;89.86;99534.44;1649771;85;21789;-78
2020/12/24 04:07:13;;;;;;;8.75;7.95;;;;;;;9.37;89.84;99533.15;1653788;86;21279;-78
2020/12/24 04:09:39;;;;;;;9.43;8.38;;;;;;;9.39;89.83;99536.53;1648413;85;21190;-78
2020/12/24 04:12:05;;;;;;;8.88;8.03;;;;;;;9.40;89.82;99529.20;1643749;85;21246;-78
2020/12/24 04:14:32;;;;;;;10.45;7.85;;;;;;;9.40;89.81;99527.91;1646280;85;21766;-78
2020/12/24 04:16:58;;;;;;;8.35;7.03;;;;;;;9.41;89.83;99528.30;1650372;85;21254;-78
2020/12/24 04:19:24;;;;;;;8.25;7.45;;;;;;;9.44;89.83;99524.34;1645323;85;21213;-78
2020/12/24 04:21:50;;;;;;;8.48;7.67;;;;;;;9.47;89.86;99529.86;1647962;85;21234;-78
2020/12/24 04:24:17;;;;;;;7.20;6.60;;;;;;;9.47;89.83;99522.13;1647764;85;21486;-78
2020/12/24 04:26:43;;;;;;;9.05;6.87;;;;;;;9.47;89.83;99522.13;1640313;85;21193;-78
2020/12/24 04:29:09;;;;;;;6.92;6.28;;;;;;;9.48;89.81;99527.23;1647698;85;21653;-78
2020/12/24 04:31:42;;;;;;;6.80;6.20;;;;;;;9.50;89.84;99532.36;1648382;85;21651;-78
2020/12/24 04:34:09;;;;;;;8.35;6.95;;;;;;;9.53;89.84;99536.14;1648770;85;21209;-78
2020/12/24 04:36:35;;;;;;;6.40;5.80;;;;;;;9.53;89.81;99539.56;1651626;85;21209;-78
2020/12/24 04:39:02;;;;;;;6.03;5.53;;;;;;;9.51;89.78;99536.19;1648033;85;21203;-78
2020/12/24 04:41:29;;;;;;;;;;;;;;;9.54;89.84;99526.22;1646229;85;21274;-78
2020/12/24 04:43:57;;;;;;;6.30;5.42;;;;;;;9.56;89.86;99524.44;1626117;87;20286;-78
2020/12/24 04:46:27;;;;;;;6.20;5.70;;;;;;;9.57;89.84;99534.72;1658423;85;21170;-78
2020/12/24 04:48:56;;;;;;;5.70;5.17;;;;;;;9.58;89.81;99544.16;1648697;85;21246;-78
2020/12/24 04:51:23;;;;;;;7.37;5.78;;;;;;;9.59;89.78;99537.25;1648106;85;21221;-78
2020/12/24 04:53:49;;;;;;;5.67;5.17;;;;;;;9.60;89.80;99542.37;1639194;86;21817;-78
2020/12/24 04:56:15;;;;;;;6.25;5.75;;;;;;;9.62;89.81;99542.33;1644957;85;21794;-78
2020/12/24 04:58:43;;;;;;;6.30;5.80;;;;;;;9.65;89.78;99544.81;1647537;85;21235;-78
2020/12/24 05:01:17;;;;;;;6.08;5.58;;;;;;;9.64;89.75;99541.84;1647853;85;21528;-78
2020/12/24 05:03:43;;;;;;;6.42;5.85;;;;;;;9.64;89.75;99525.06;1650658;85;21163;-78
2020/12/24 05:06:17;;;;;;;6.55;5.78;;;;;;;9.65;89.75;99524.17;1641576;85;21582;-78
2020/12/24 05:08:55;;;;;;;7.15;6.55;;;;;;;9.65;89.71;99523.33;1647087;85;21209;-77
2020/12/24 05:11:29;;;;;;;6.00;5.50;;;;;;;9.65;89.71;99537.52;1654539;86;21749;-77
2020/12/24 05:13:58;;;;;;;6.37;5.87;;;;;;;9.63;89.62;99533.25;1649293;86;21581;-77
2020/12/24 05:16:24;;;;;;;8.55;5.40;;;;;;;9.61;89.63;99531.60;1644537;85;21225;-77
2020/12/24 05:18:50;;;;;;;6.12;5.53;;;;;;;9.59;89.65;99534.23;1645636;85;21795;-77
2020/12/24 05:21:33;;;;;;;6.25;5.65;;;;;;;9.59;89.66;99531.64;1643481;85;21237;-77
2020/12/24 05:23:59;;;;;;;6.55;5.72;;;;;;;9.57;89.67;99536.45;1652268;85;21272;-77
2020/12/24 05:26:25;;;;;;;12.10;6.17;;;;;;;9.57;89.71;99541.17;1652154;85;21201;-77
2020/12/24 05:28:52;;;;;;;5.72;5.12;;;;;;;9.58;89.73;99542.02;1649790;85;21219;-77
2020/12/24 05:31:33;;;;;;;5.20;4.70;;;;;;;9.58;89.70;99536.85;1648262;86;21660;-78
2020/12/24 05:33:59;;;;;;;5.30;4.80;;;;;;;9.56;89.70;99538.19;1645352;85;21778;-77
2020/12/24 05:36:26;;;;;;;4.53;4.22;;;;;;;9.56;89.71;99537.34;1648331;85;21635;-77
2020/12/24 05:38:53;;;;;;;5.05;4.65;;;;;;;9.55;89.69;99544.69;1649851;85;21221;-77
2020/12/24 05:41:38;;;;;;;4.55;4.15;;;;;;;9.56;89.70;99533.02;1656276;85;21126;-77
2020/12/24 05:44:11;;;;;;;4.95;4.53;;;;;;;9.55;89.71;99530.48;1650188;85;21997;-78
2020/12/24 05:46:48;;;;;;;4.92;4.53;;;;;;;9.52;89.67;99523.69;1648415;85;21214;-78
2020/12/24 05:49:21;;;;;;;7.75;4.15;;;;;;;9.50;89.66;99519.45;1641509;85;21118;-78
2020/12/24 05:51:53;;;;;;;4.80;4.40;;;;;;;9.49;89.71;99519.05;1646944;85;21205;-78
2020/12/24 05:54:20;;;;;;;4.62;4.22;;;;;;;9.47;89.69;99511.36;1655734;85;21151;-78
2020/12/24 05:56:47;;;;;;;4.95;4.55;;;;;;;9.47;89.70;99509.22;1646579;85;21658;-78
2020/12/24 05:59:22;;;;;;;4.72;4.30;;;;;;;9.46;89.72;99506.24;1648908;85;21742;-78
2020/12/24 06:02:19;;;;;;;4.33;3.92;;;;;;;9.46;89.74;99492.05;1633294;85;21225;-78
2020/12/24 06:04:48;;;;;;;4.45;4.05;;;;;;;9.46;89.76;99490.77;1651263;85;21126;-77
2020/12/24 06:07:22;;;;;;;4.92;4.53;;;;;;;9.46;89.77;99484.31;1652066;85;21209;-77
2020/12/24 06:09:50;;;;;;;4.70;4.28;;;;;;;9.47;89.79;99496.32;1647194;85;21746;-77
2020/12/24 06:12:22;;;;;;;4.83;4.40;;;;;;;9.45;89.74;99483.47;1647952;85;21774;-78
2020/12/24 06:14:57;;;;;;;4.50;4.10;;;;;;;9.44;89.72;99470.61;1635992;85;21197;-78
2020/12/24 06:17:26;;;;;;;5.03;4.62;;;;;;;9.43;89.71;99473.63;1642993;85;21210;-78
2020/12/24 06:19:53;;;;;;;17.25;5.10;;;;;;;9.41;89.70;99467.67;1638683;85;21225;-78
2020/12/24 06:22:22;;;;;;;6.40;4.70;;;;;;;9.41;89.71;99470.70;1642726;85;21229;-78
2020/12/24 06:24:58;;;;;;;4.60;4.20;;;;;;;9.39;89.68;99464.73;1619228;85;21277;-79
2020/12/24 06:27:41;;;;;;;4.30;4.00;;;;;;;9.39;89.73;99469.90;1638545;85;21190;-78
2020/12/24 06:30:23;;;;;;;4.22;3.92;;;;;;;9.37;89.71;99472.52;1647913;85;21480;-78
2020/12/24 06:32:53;;;;;;;4.65;4.20;;;;;;;9.37;89.73;99472.52;1625951;86;21254;-78
2020/12/24 06:35:39;;;;;;;5.03;4.08;;;;;;;9.37;89.75;99472.52;1649206;85;21240;-78
2020/12/24 06:38:09;;;;;;;3.90;3.60;;;;;;;9.38;89.73;99470.79;1642890;85;21222;-78
2020/12/24 06:40:38;;;;;;;4.10;3.67;;;;;;;9.36;89.71;99470.02;1651959;85;22095;-78
2020/12/24 06:43:06;;;;;;;5.37;3.47;;;;;;;9.35;89.71;99470.91;1651068;85;21635;-79
2020/12/24 06:45:40;;;;;;;3.85;3.55;;;;;;;9.34;89.69;99473.09;1646463;85;21767;-78
2020/12/24 06:48:21;;;;;;;5.10;3.55;;;;;;;9.32;89.68;99477.45;1655180;85;21620;-78
2020/12/24 06:50:54;;;;;;;5.42;3.67;;;;;;;9.30;89.72;99477.48;1655760;85;21252;-78
2020/12/24 06:53:23;;;;;;;3.87;3.58;;;;;;;9.32;89.72;99478.73;1650898;85;21111;-78
2020/12/24 06:56:19;;;;;;;4.12;3.83;;;;;;;9.31;89.72;99461.56;1648843;85;21224;-78
2020/12/24 06:58:51;;;;;;;;;;;;;;;9.31;89.72;99467.57;1644144;85;21231;-78
2020/12/24 07:01:27;;;;;;;3.62;3.08;;;;;;;9.31;89.74;99471.89;1648346;86;21177;-78
2020/12/24 07:03:57;;;;;;;2.83;2.62;;;;;;;9.29;89.73;99480.52;1650640;85;21277;-78
2020/12/24 07:06:49;;;;;;;4.35;3.58;;;;;;;9.27;89.71;99484.88;1647531;85;21210;-78
2020/12/24 07:09:26;;;;;;;4.55;3.00;;;;;;;9.28;89.69;99471.09;1641330;85;21238;-77
2020/12/24 07:11:53;;;;;;;3.33;3.02;;;;;;;9.28;89.70;99476.69;1645524;85;21674;-77
2020/12/24 07:14:39;;;;;;;;;;;;;;;9.26;89.70;99485.77;1651372;85;21760;-78
2020/12/24 07:17:20;;;;;;;3.27;2.80;;;;;;;9.27;89.74;99493.91;1647612;86;20429;-77
2020/12/24 07:19:51;;;;;;;2.25;2.05;;;;;;;9.27;89.74;99510.67;1653287;85;21206;-78
2020/12/24 07:22:20;;;;;;;2.33;2.12;;;;;;;9.29;89.73;99488.70;1649753;86;21222;-78
2020/12/24 07:24:56;;;;;;;3.70;2.22;;;;;;;9.29;89.73;99477.94;1650122;85;21127;-78
2020/12/24 07:27:25;;;;;;;2.80;2.17;;;;;;;9.29;89.71;99480.52;1649313;86;24132;-78
2020/12/24 07:29:51;;;;;;;4.83;2.37;;;;;;;9.29;89.72;99490.83;1625124;86;21640;-78
2020/12/24 07:32:20;;;;;;;4.47;2.72;;;;;;;9.32;89.70;99501.51;1622343;86;21146;-78
2020/12/24 07:34:47;;;;;;;2.08;1.57;;;;;;;9.34;89.71;99507.91;1643124;85;21564;-78
2020/12/24 07:37:13;;;;;;;3.67;1.95;;;;;;;9.35;89.69;99501.87;1658054;85;21139;-78
2020/12/24 07:39:51;;;;;;;3.75;1.67;;;;;;;9.36;89.69;99506.95;1648913;85;21798;-80
2020/12/24 07:44:52;;;;;;;3.42;1.80;;;;;;;9.40;89.67;99506.42;1647215;83;21240;-79
2020/12/24 07:47:18;;;;;;;2.55;1.98;;;;;;;9.40;89.64;99508.55;1630934;86;21234;-79
2020/12/24 07:49:52;;;;;;;2.00;1.50;;;;;;;9.40;89.64;99499.52;1687549;83;21202;-79
2020/12/24 07:52:18;;;;;;;3.55;1.65;;;;;;;9.41;89.62;99504.23;1687135;83;21201;-79
2020/12/24 07:54:44;;;;;;;1.87;1.40;;;;;;;9.41;89.63;99504.23;1688996;83;21228;-79
2020/12/24 07:57:12;;;;;;;5.90;1.67;;;;;;;9.41;89.62;99492.19;1670574;84;21266;-78
2020/12/24 07:59:39;;;;;;;2.77;1.45;;;;;;;9.40;89.59;99494.81;1647987;86;21250;-78
2020/12/24 08:02:06;;;;;;;3.20;1.67;;;;;;;9.41;89.60;99497.34;1692974;83;22031;-78
2020/12/24 08:04:32;;;;;;;2.15;1.60;;;;;;;9.40;89.61;99481.47;1689269;83;21763;-78
2020/12/24 08:06:58;;;;;;;2.42;1.50;;;;;;;9.40;89.61;99485.33;1696432;83;21213;-78
2020/12/24 08:09:24;;;;;;;2.77;1.80;;;;;;;9.39;89.57;99479.77;1664460;84;21227;-78
2020/12/24 08:11:59;;;;;;;3.60;1.62;;;;;;;9.38;89.55;99474.66;1696556;83;21239;-78
2020/12/24 08:14:30;;;;;;;3.00;1.72;;;;;;;9.37;89.57;99475.10;1671022;84;21194;-78
2020/12/24 08:17:07;;;;;;;2.70;1.50;;;;;;;9.37;89.59;99489.29;1669844;84;22668;-78
2020/12/24 08:19:51;;;;;;;1.67;1.45;;;;;;;9.36;89.58;99480.34;1679310;83;21823;-78
2020/12/24 08:22:52;;;;;;;4.30;1.72;;;;;;;9.35;89.59;99476.91;1663477;84;21225;-78
2020/12/24 08:25:19;;;;;;;2.08;1.45;;;;;;;9.35;89.60;99481.23;1662143;84;21250;-76
2020/12/24 08:27:46;;;;;;;2.27;1.70;;;;;;;9.34;89.58;99475.67;1693434;83;21207;-79
2020/12/24 08:30:14;;;;;;;1.90;1.30;;;;;;;9.33;89.53;99470.95;1693262;83;22032;-76
2020/12/24 08:32:41;;;;;;;2.95;1.30;;;;;;;9.29;89.52;99470.20;1686779;83;21510;-76
2020/12/24 08:35:12;;;;;;;1.60;1.17;;;;;;;9.27;89.50;99465.53;1688770;83;21226;-76
2020/12/24 08:37:39;;;;;;;2.30;1.40;;;;;;;9.27;89.52;99468.11;1693591;83;21225;-76
2020/12/24 08:40:24;;;;;;;1.87;1.47;;;;;;;9.27;89.51;99473.27;1694955;83;21620;-76
2020/12/24 08:42:55;;;;;;;2.05;1.57;;;;;;;9.27;89.53;99459.08;1679408;84;22062;-79
2020/12/24 08:45:21;;;;;;;2.80;1.45;;;;;;;9.25;89.48;99467.30;1617303;86;21688;-81
2020/12/24 08:47:47;;;;;;;3.25;1.42;;;;;;;9.23;89.43;99465.21;1670450;84;21226;-79
2020/12/24 08:50:14;;;;;;;2.45;1.32;;;;;;;9.19;89.38;99473.93;1660125;84;21213;-76
2020/12/24 08:52:43;;;;;;;3.37;1.52;;;;;;;9.17;89.34;99468.41;1660036;84;21212;-78
2020/12/24 08:55:09;;;;;;;4.85;1.40;;;;;;;9.14;89.31;99476.23;1664183;85;21179;-78
2020/12/24 08:57:37;;;;;;;2.00;1.45;;;;;;;9.11;89.27;99478.45;1660491;86;21146;-78
2020/12/24 09:00:08;;;;;;;2.35;1.30;;;;;;;9.07;89.25;99478.14;1659872;84;21135;-78
2020/12/24 09:02:36;;;;;;;6.10;1.57;;;;;;;9.03;89.19;99473.11;1635829;85;21159;-78
2020/12/24 09:05:05;;;;;;;1.92;1.07;;;;;;;8.99;89.16;99474.08;1662431;84;21127;-77
2020/12/24 09:07:37;;;;;;;4.08;1.20;;;;;;;8.95;89.17;99477.19;1661076;84;21167;-77
2020/12/24 09:10:13;;;;;;;1.15;0.85;;;;;;;8.92;89.14;99473.41;1638736;84;21182;-77
2020/12/24 09:12:41;;;;;;;3.62;1.15;;;;;;;8.89;89.06;99490.25;1654892;85;21918;-79
2020/12/24 09:15:15;;;;;;;4.22;1.12;;;;;;;8.83;89.04;99486.13;1657538;84;21145;-79
2020/12/24 09:17:59;;;;;;;1.65;1.02;;;;;;;8.79;89.00;99488.39;1663594;84;21167;-79
2020/12/24 09:20:28;;;;;;;2.15;0.70;;;;;;;8.75;88.95;99495.80;1663755;84;21216;-79
2020/12/24 09:23:05;;;;;;;2.08;0.90;;;;;;;8.68;88.91;99498.58;1670224;84;21142;-79
2020/12/24 09:25:38;;;;;;;4.03;0.80;;;;;;;8.63;88.92;99496.97;1665269;84;21180;-79
2020/12/24 09:28:23;;;;;;;3.27;0.93;;;;;;;8.60;88.87;99496.20;1667653;84;21159;-79
2020/12/24 09:30:52;;;;;;;2.25;0.95;;;;;;;8.57;88.87;99498.41;1653451;86;21135;-79
2020/12/24 09:33:18;;;;;;;1.95;0.80;;;;;;;8.55;88.86;99489.87;1658960;84;21658;-79
2020/12/24 09:35:45;;;;;;;2.08;1.30;;;;;;;8.54;88.83;99486.05;1687946;83;21171;-79
2020/12/24 09:38:12;;;;;;;2.08;1.32;;;;;;;8.53;88.82;99492.09;1663729;84;21163;-78
2020/12/24 09:40:39;;;;;;;3.15;1.42;;;;;;;8.53;88.83;99489.51;1673482;84;21199;-78
2020/12/24 09:43:07;;;;;;;5.03;1.15;;;;;;;8.52;88.84;99491.24;1634986;86;21230;-79
2020/12/24 09:45:36;;;;;;;2.55;1.07;;;;;;;8.54;88.91;99501.50;1617395;86;21269;-79
2020/12/24 09:48:03;;;;;;;2.08;1.25;;;;;;;8.56;88.92;99490.72;1648403;87;21660;-79
2020/12/24 09:50:29;;;;;;;;;;;;;;;8.56;88.86;99494.14;1674294;84;21815;-78
2020/12/24 09:52:56;;;;;;;3.52;1.27;;;;;;;8.55;88.79;99496.31;1651438;85;20278;-78
2020/12/24 09:55:22;;;;;;;5.92;1.35;;;;;;;8.54;88.75;99495.06;1665700;85;21129;-78
2020/12/24 09:57:48;;;;;;;5.17;1.05;;;;;;;8.54;88.75;99494.62;1675426;85;21232;-78
2020/12/24 10:00:15;;;;;;;2.33;1.27;;;;;;;8.56;88.76;99495.43;1674901;85;21242;-78
2020/12/24 10:02:41;;;;;;;6.42;1.72;;;;;;;8.60;88.77;99498.77;1661879;85;21231;-78
2020/12/24 10:05:08;;;;;;;12.78;4.40;;;;;;;8.62;88.72;99488.83;1651509;85;21225;-78
2020/12/24 10:07:35;;;;;;;8.08;2.25;;;;;;;8.68;88.75;99488.27;1654653;85;21646;-78
2020/12/24 10:10:01;;;;;;;7.00;2.12;;;;;;;8.73;88.74;99486.42;1647988;85;21254;-78
2020/12/24 10:12:28;;;;;;;3.42;1.20;;;;;;;8.76;88.65;99493.62;1674287;84;27258;-78
2020/12/24 10:14:55;;;;;;;3.92;1.20;;;;;;;8.77;88.53;99481.14;1675436;85;21145;-78
2020/12/24 10:17:22;;;;;;;;;;;;;;;8.75;88.41;99487.22;1667462;85;21223;-78
2020/12/24 10:19:48;;;;;;;1.77;0.80;;;;;;;8.72;88.35;99494.59;1664716;84;20316;-78
2020/12/24 10:22:15;;;;;;;5.37;1.57;;;;;;;8.71;88.37;99489.03;1654449;86;21283;-78
2020/12/24 10:24:43;;;;;;;;;;;;;;;8.70;88.34;99479.61;1648992;85;21258;-78
2020/12/24 10:27:12;;;;;;;3.83;1.42;;;;;;;8.70;88.29;99476.19;1652012;85;20269;-78
2020/12/24 10:29:40;;;;;;;10.68;2.40;;;;;;;8.70;88.29;99480.05;1648642;85;21126;-78
2020/12/24 10:32:06;;;;;;;4.37;1.60;;;;;;;8.67;88.26;99483.55;1647895;86;21644;-78
2020/12/24 10:34:33;;;;;;;8.43;1.57;;;;;;;8.66;88.25;99466.41;1663379;84;21247;-78
2020/12/24 10:37:02;;;;;;;3.22;1.00;;;;;;;8.67;88.21;99460.80;1668230;85;21158;-78
2020/12/24 10:39:28;;;;;;;6.55;1.67;;;;;;;8.69;88.23;99454.73;1656240;85;21139;-78
2020/12/24 10:41:55;;;;;;;4.10;1.25;;;;;;;8.70;88.16;99463.30;1675364;85;21158;-79
2020/12/24 10:44:22;;;;;;;7.20;1.30;;;;;;;8.72;88.18;99459.80;1677609;84;21313;-79
2020/12/24 10:46:50;;;;;;;5.47;1.30;;;;;;;8.72;88.09;99456.38;1680430;84;21596;-78
2020/12/24 10:49:16;;;;;;;3.20;1.22;;;;;;;8.71;88.03;99459.84;1674387;83;21580;-78
2020/12/24 10:51:44;;;;;;;6.65;1.70;;;;;;;8.72;88.05;99464.95;1690397;84;21143;-78
2020/12/24 10:54:10;;;;;;;5.30;1.80;;;;;;;8.74;88.00;99466.20;1689888;83;21135;-78
2020/12/24 10:56:36;;;;;;;7.67;1.80;;;;;;;8.74;87.99;99461.05;1673840;84;21526;-78
2020/12/24 10:59:03;;;;;;;6.45;1.32;;;;;;;8.74;87.96;99468.78;1691204;84;21248;-78
2020/12/24 11:01:29;;;;;;;5.87;1.70;;;;;;;8.74;87.88;99454.61;1684660;84;21139;-78
2020/12/24 11:03:55;;;;;;;10.20;3.52;;;;;;;8.73;87.85;99447.77;1697243;83;21543;-78
2020/12/24 11:06:23;;;;;;;5.58;2.22;;;;;;;8.75;87.84;99445.98;1663913;84;21126;-78
2020/12/24 11:08:52;;;;;;;6.15;2.20;;;;;;;8.75;87.83;99440.83;1663870;86;21146;-78
2020/12/24 11:11:19;;;;;;;4.08;1.72;;;;;;;8.75;87.82;99439.10;1677248;84;21183;-78
2020/12/24 11:13:46;;;;;;;6.22;1.57;;;;;;;8.75;87.78;99436.52;1685981;84;21134;-78
2020/12/24 11:16:24;;;;;;;10.15;2.27;;;;;;;8.77;87.78;99442.92;1669211;84;21148;-78
2020/12/24 11:18:51;;;;;;;10.40;1.37;;;;;;;8.77;87.81;99436.48;1690084;83;21587;-78
2020/12/24 11:21:21;;;;;;;6.58;1.80;;;;;;;8.78;87.78;99431.28;1647246;86;21159;-78
2020/12/24 11:23:49;;;;;;;6.28;1.60;;;;;;;8.82;87.81;99429.02;1661832;85;21583;-78
2020/12/24 11:26:23;;;;;;;6.87;1.82;;;;;;;8.83;87.77;99417.83;1691953;84;21151;-78
2020/12/24 11:28:52;;;;;;;5.53;1.42;;;;;;;8.87;87.75;99419.40;1679776;84;21150;-78
2020/12/24 11:31:30;;;;;;;3.33;1.30;;;;;;;8.91;87.68;99420.16;1663317;84;21230;-78
2020/12/24 11:33:57;;;;;;;3.50;1.20;;;;;;;8.91;87.59;99420.16;1664522;83;21218;-78
2020/12/24 11:36:25;;;;;;;2.62;1.07;;;;;;;8.94;87.66;99413.18;1669182;83;21698;-78
2020/12/24 11:38:52;;;;;;;8.85;1.62;;;;;;;8.98;87.61;99402.34;1689385;84;21645;-78
2020/12/24 11:41:23;;;;;;;2.10;1.25;;;;;;;8.98;87.51;99398.91;1667735;85;21217;-78
2020/12/24 11:43:50;;;;;;;4.25;1.20;;;;;;;8.98;87.44;99395.89;1691254;83;21162;-78
2020/12/24 11:46:19;;;;;;;3.83;1.32;;;;;;;8.97;87.40;99408.38;1679967;84;21130;-78